createdAt,value
2018-03-04T00:01:10.024Z,-1.50
2018-03-04T00:03:38.086Z,-1.50
2018-03-04T00:06:06.357Z,-1.50
2018-03-04T00:08:35.397Z,-1.50
2018-03-04T00:11:03.682Z,-1.60
2018-03-04T00:13:31.974Z,-1.60
2018-03-04T00:16:00.244Z,-1.60
2018-03-04T00:18:28.518Z,-1.60
2018-03-04T00:38:14.824Z,-1.50
2018-03-04T00:40:43.102Z,-1.50
2018-03-04T00:43:11.396Z,-1.50
2018-03-04T00:45:39.674Z,-1.50
2018-03-04T00:48:07.941Z,-1.50
2018-03-04T00:50:36.214Z,-1.50
2018-03-04T00:53:04.498Z,-1.50
2018-03-04T00:55:32.767Z,-1.40
2018-03-04T00:58:02.579Z,-1.40
2018-03-04T01:17:49.076Z,-1.20
2018-03-04T01:20:17.352Z,-1.10
2018-03-04T01:22:45.659Z,-1.10
2018-03-04T01:25:13.942Z,-1.10
2018-03-04T01:27:42.229Z,-1.10
2018-03-04T01:30:10.508Z,-1.10
2018-03-04T01:32:38.780Z,-1.10
2018-03-04T01:35:07.093Z,-1.10
2018-03-04T01:37:35.378Z,-1.20
2018-03-04T01:57:22.952Z,-1.10
2018-03-04T01:59:51.222Z,-1.10
2018-03-04T02:02:19.522Z,-1.10
2018-03-04T02:04:47.804Z,-1.10
2018-03-04T02:07:15.899Z,-1.00
2018-03-04T02:09:44.165Z,-1.00
2018-03-04T02:12:12.487Z,-1.00
2018-03-04T02:14:40.754Z,-1.10
2018-03-04T02:17:09.042Z,-1.10
2018-03-04T02:36:55.825Z,-1.00
2018-03-04T02:39:24.114Z,-1.10
2018-03-04T02:41:52.412Z,-1.10
2018-03-04T02:44:20.698Z,-1.10
2018-03-04T02:46:48.985Z,-1.10
2018-03-04T02:49:17.254Z,-1.10
2018-03-04T02:51:45.517Z,-1.10
2018-03-04T02:54:13.863Z,-1.20
2018-03-04T02:56:42.155Z,-1.30
2018-03-04T03:16:32.212Z,-1.70
2018-03-04T03:19:00.488Z,-1.70
2018-03-04T03:21:28.803Z,-1.70
2018-03-04T03:23:57.079Z,-1.70
2018-03-04T03:26:25.377Z,-1.70
2018-03-04T03:28:53.660Z,-1.70
2018-03-04T03:31:21.965Z,-1.70
2018-03-04T03:33:50.258Z,-1.70
2018-03-04T03:36:18.966Z,-1.70
2018-03-04T03:56:06.923Z,-1.10
2018-03-04T03:58:35.966Z,-1.00
2018-03-04T04:01:04.242Z,-1.10
2018-03-04T04:03:32.526Z,-1.00
2018-03-04T04:06:00.793Z,-0.90
2018-03-04T04:08:29.079Z,-0.90
2018-03-04T04:10:57.353Z,-0.90
2018-03-04T04:13:25.649Z,-0.80
2018-03-04T04:15:53.961Z,-0.80
2018-03-04T04:35:41.068Z,-0.90
2018-03-04T04:38:10.132Z,-1.10
2018-03-04T04:40:38.421Z,-1.10
2018-03-04T04:43:06.705Z,-1.10
2018-03-04T04:45:34.976Z,-1.10
2018-03-04T04:48:03.277Z,-1.20
2018-03-04T04:50:31.568Z,-1.20
2018-03-04T04:53:00.596Z,-1.20
2018-03-04T04:55:29.672Z,-1.20
2018-03-04T05:15:15.521Z,-0.90
2018-03-04T05:17:43.801Z,-0.90
2018-03-04T05:20:12.057Z,-0.80
2018-03-04T05:22:40.342Z,-0.80
2018-03-04T05:25:08.646Z,-0.80
2018-03-04T05:27:37.185Z,-0.70
2018-03-04T05:30:05.448Z,-0.70
2018-03-04T05:32:33.736Z,-0.60
2018-03-04T05:35:02.011Z,-0.60
2018-03-04T05:54:55.564Z,-0.30
2018-03-04T05:57:23.852Z,-0.30
2018-03-04T05:59:52.940Z,-0.20
2018-03-04T06:02:21.213Z,-0.20
2018-03-04T06:04:49.521Z,-0.20
2018-03-04T06:07:18.579Z,-0.10
2018-03-04T06:09:46.845Z,-0.10
2018-03-04T06:12:15.133Z,-0.10
2018-03-04T06:14:43.396Z,-0.10
2018-03-04T06:34:29.667Z,0.10
2018-03-04T06:36:57.945Z,0.10
2018-03-04T06:39:26.212Z,0.20
2018-03-04T06:41:54.485Z,0.20
2018-03-04T06:44:22.780Z,0.20
2018-03-04T06:46:51.061Z,0.30
2018-03-04T06:49:19.350Z,0.30
2018-03-04T06:51:47.833Z,0.30
2018-03-04T06:54:16.172Z,0.30
2018-03-04T07:14:02.569Z,0.80
2018-03-04T07:16:30.861Z,0.90
2018-03-04T07:18:59.135Z,0.90
2018-03-04T07:21:27.424Z,1.00
2018-03-04T07:23:55.698Z,1.10
2018-03-04T07:26:23.966Z,1.10
2018-03-04T07:28:52.232Z,1.10
2018-03-04T07:31:20.705Z,1.10
2018-03-04T07:33:48.972Z,1.10
2018-03-04T07:53:37.140Z,1.50
2018-03-04T07:56:05.421Z,1.50
2018-03-04T07:58:33.710Z,1.60
2018-03-04T08:01:01.970Z,1.70
2018-03-04T08:03:30.287Z,1.80
2018-03-04T08:05:58.560Z,1.80
2018-03-04T08:08:26.834Z,1.80
2018-03-04T08:10:54.926Z,1.90
2018-03-04T08:13:23.965Z,1.90
2018-03-04T08:33:10.453Z,2.40
2018-03-04T08:35:38.734Z,2.50
2018-03-04T08:38:07.816Z,2.50
2018-03-04T08:40:36.066Z,2.50
2018-03-04T08:43:04.340Z,2.60
2018-03-04T08:45:32.671Z,2.70
2018-03-04T08:48:01.126Z,2.80
2018-03-04T08:50:29.389Z,2.80
2018-03-04T08:52:57.663Z,2.90
2018-03-04T09:12:44.092Z,3.50
2018-03-04T09:15:12.386Z,3.60
2018-03-04T09:17:41.217Z,3.80
2018-03-04T09:20:09.178Z,3.70
2018-03-04T09:22:37.438Z,4.00
2018-03-04T09:25:05.701Z,4.20
2018-03-04T09:27:33.975Z,4.30
2018-03-04T09:30:02.252Z,4.40
2018-03-04T09:32:30.525Z,4.60
2018-03-04T09:52:17.625Z,4.90
2018-03-04T09:54:45.884Z,4.90
2018-03-04T09:57:14.161Z,5.00
2018-03-04T09:59:42.427Z,5.10
2018-03-04T10:02:10.752Z,5.10
2018-03-04T10:04:39.193Z,5.10
2018-03-04T10:07:07.513Z,5.10
2018-03-04T10:09:35.763Z,5.10
2018-03-04T10:12:04.064Z,5.30
2018-03-04T10:17:25.956Z,5.70
2018-03-04T10:19:54.241Z,5.70
2018-03-04T10:22:22.500Z,5.90
2018-03-04T10:24:50.830Z,5.90
2018-03-04T10:27:19.256Z,6.00
2018-03-04T10:29:48.293Z,6.10
2018-03-04T10:32:16.571Z,6.10
2018-03-04T10:34:45.800Z,6.20
2018-03-04T10:37:14.096Z,6.20
2018-03-04T10:57:00.066Z,7.10
2018-03-04T10:59:28.358Z,7.20
2018-03-04T11:02:02.105Z,7.30
2018-03-04T11:04:30.265Z,7.40
2018-03-04T11:06:58.548Z,7.40
2018-03-04T11:09:26.851Z,7.40
2018-03-04T11:11:55.128Z,7.40
2018-03-04T11:14:23.417Z,7.50
2018-03-04T11:16:52.371Z,7.50
2018-03-04T11:36:38.391Z,8.50
2018-03-04T11:39:06.677Z,8.60
2018-03-04T11:41:34.952Z,8.50
2018-03-04T11:44:03.230Z,8.60
2018-03-04T11:46:31.504Z,8.70
2018-03-04T11:48:59.861Z,8.60
2018-03-04T11:51:28.143Z,8.60
2018-03-04T11:53:56.419Z,8.70
2018-03-04T11:56:24.514Z,8.50
2018-03-04T12:01:46.001Z,8.60
2018-03-04T12:04:14.280Z,8.40
2018-03-04T12:06:42.583Z,8.60
2018-03-04T12:09:10.886Z,8.60
2018-03-04T12:11:39.153Z,8.60
2018-03-04T12:14:07.445Z,8.90
2018-03-04T12:16:35.738Z,8.90
2018-03-04T12:19:04.222Z,8.70
2018-03-04T12:21:32.484Z,8.60
2018-03-04T12:24:04.212Z,8.60
2018-03-04T12:26:32.474Z,8.70
2018-03-04T12:29:01.204Z,8.70
2018-03-04T12:31:29.501Z,8.80
2018-03-04T12:33:57.775Z,9.00
2018-03-04T12:36:26.049Z,8.90
2018-03-04T12:38:54.330Z,9.00
2018-03-04T12:41:22.613Z,9.10
2018-03-04T12:43:51.684Z,9.10
2018-03-04T12:46:19.950Z,9.10
2018-03-04T12:48:48.996Z,9.00
2018-03-04T12:51:17.268Z,9.00
2018-03-04T12:53:45.564Z,9.00
2018-03-04T12:56:13.663Z,9.00
2018-03-04T12:58:42.146Z,8.80
2018-03-04T13:01:10.634Z,8.90
2018-03-04T13:03:38.896Z,8.90
2018-03-04T13:06:08.030Z,9.20
2018-03-04T13:08:36.294Z,9.50
2018-03-04T13:11:05.333Z,9.90
2018-03-04T13:13:33.376Z,9.90
2018-03-04T13:16:01.667Z,10.10
2018-03-04T13:18:30.723Z,10.20
2018-03-04T13:20:59.055Z,10.20
2018-03-04T13:23:27.383Z,10.00
2018-03-04T13:25:55.688Z,9.80
2018-03-04T13:28:23.976Z,9.80
2018-03-04T13:30:52.264Z,9.70
2018-03-04T13:33:20.656Z,9.70
2018-03-04T13:35:48.960Z,9.80
2018-03-04T13:38:17.256Z,9.80
2018-03-04T13:40:45.550Z,9.70
2018-03-04T13:43:13.830Z,9.70
2018-03-04T13:45:42.088Z,9.90
2018-03-04T13:48:10.357Z,9.90
2018-03-04T13:50:38.658Z,10.10
2018-03-04T13:53:06.919Z,10.00
2018-03-04T13:55:35.204Z,10.10
2018-03-04T13:58:03.493Z,10.20
2018-03-04T14:00:31.758Z,10.20
2018-03-04T14:03:00.052Z,10.20
2018-03-04T14:05:28.319Z,10.40
2018-03-04T14:45:28.435Z,10.40
2018-03-04T14:47:56.750Z,10.30
2018-03-04T14:50:25.051Z,10.40
2018-03-04T14:52:53.405Z,10.30
2018-03-04T14:55:21.854Z,10.20
2018-03-04T14:57:50.143Z,10.30
2018-03-04T15:00:18.419Z,10.40
2018-03-04T15:02:46.720Z,10.40
2018-03-04T15:05:15.797Z,10.40
2018-03-04T15:07:44.207Z,10.40
2018-03-04T15:10:12.507Z,10.30
2018-03-04T15:12:40.807Z,10.30
2018-03-04T15:15:09.130Z,10.20
2018-03-04T15:17:37.416Z,10.20
2018-03-04T15:20:05.707Z,10.20
2018-03-04T15:22:33.987Z,10.20
2018-03-04T15:25:02.313Z,10.20
2018-03-04T15:27:30.614Z,10.00
2018-03-04T15:29:59.070Z,10.00
2018-03-04T15:32:27.343Z,10.00
2018-03-04T15:34:55.648Z,9.90
2018-03-04T15:37:23.998Z,9.90
2018-03-04T15:39:52.347Z,9.90
2018-03-04T15:42:20.641Z,9.90
2018-03-04T15:44:48.932Z,9.90
2018-03-04T15:47:18.129Z,9.80
2018-03-04T15:49:47.206Z,9.70
2018-03-04T15:52:15.303Z,9.70
2018-03-04T15:54:43.644Z,9.70
2018-03-04T15:57:12.059Z,9.70
2018-03-04T15:59:40.396Z,9.60
2018-03-04T16:02:08.738Z,9.60
2018-03-04T16:04:37.206Z,9.50
2018-03-04T16:07:05.477Z,9.50
2018-03-04T16:09:35.347Z,9.40
2018-03-04T16:12:03.631Z,9.40
2018-03-04T16:14:31.937Z,9.50
2018-03-04T16:17:00.251Z,9.40
2018-03-04T16:19:28.590Z,9.30
2018-03-04T16:21:56.889Z,9.30
2018-03-04T16:24:25.193Z,9.20
2018-03-04T16:26:53.185Z,9.20
2018-03-04T16:29:21.453Z,9.10
2018-03-04T16:31:49.776Z,9.10
2018-03-04T16:34:17.890Z,9.30
2018-03-04T16:36:46.277Z,9.20
2018-03-04T16:39:14.764Z,9.10
2018-03-04T16:41:43.321Z,9.10
2018-03-04T16:44:11.653Z,9.00
2018-03-04T16:46:40.091Z,9.00
2018-03-04T16:49:08.467Z,9.00
2018-03-04T16:51:36.898Z,9.00
2018-03-04T16:54:24.783Z,8.90
2018-03-04T16:56:53.075Z,8.90
2018-03-04T16:59:21.349Z,8.80
2018-03-04T17:01:49.657Z,8.80
2018-03-04T17:04:17.955Z,8.70
2018-03-04T17:06:52.461Z,8.70
2018-03-04T17:09:20.853Z,8.60
2018-03-04T17:11:49.138Z,8.60
2018-03-04T17:14:17.435Z,8.60
2018-03-04T17:16:46.624Z,8.50
2018-03-04T17:19:14.925Z,8.40
2018-03-04T17:21:43.268Z,8.40
2018-03-04T17:24:11.651Z,8.30
2018-03-04T17:26:40.303Z,8.20
2018-03-04T17:29:08.588Z,8.10
2018-03-04T17:31:36.958Z,8.10
2018-03-04T17:34:05.285Z,8.10
2018-03-04T17:36:33.706Z,8.00
2018-03-04T17:39:02.030Z,7.90
2018-03-04T17:41:29.982Z,7.80
2018-03-04T17:43:58.285Z,7.70
2018-03-04T17:46:26.577Z,7.70
2018-03-04T17:48:54.858Z,7.70
2018-03-04T17:51:23.958Z,7.60
2018-03-04T17:53:52.230Z,7.60
2018-03-04T17:56:24.277Z,7.60
2018-03-04T17:58:53.364Z,7.50
2018-03-04T18:01:22.071Z,7.60
2018-03-04T18:03:50.391Z,7.60
2018-03-04T18:06:18.649Z,7.60
2018-03-04T18:08:46.933Z,7.60
2018-03-04T18:11:15.412Z,7.70
2018-03-04T18:13:43.704Z,7.70
2018-03-04T18:16:11.984Z,7.70
2018-03-04T18:18:40.346Z,7.70
2018-03-04T18:21:08.609Z,7.70
2018-03-04T18:23:37.704Z,7.80
2018-03-04T18:26:06.752Z,7.70
2018-03-04T18:28:35.044Z,7.70
2018-03-04T18:31:06.552Z,7.70
2018-03-04T18:33:35.711Z,7.80
2018-03-04T18:36:03.974Z,7.80
2018-03-04T18:38:32.283Z,7.80
2018-03-04T18:41:00.558Z,7.70
2018-03-04T18:43:28.834Z,7.70
2018-03-04T18:45:57.268Z,7.70
2018-03-04T18:48:25.590Z,7.60
2018-03-04T18:50:54.626Z,7.60
2018-03-04T18:53:23.925Z,7.60
2018-03-04T18:55:52.018Z,7.60
2018-03-04T18:58:20.306Z,7.60
2018-03-04T19:00:48.593Z,7.60
2018-03-04T19:03:16.865Z,7.50
2018-03-04T19:05:45.278Z,7.40
2018-03-04T19:25:31.978Z,6.70
2018-03-04T19:28:00.268Z,6.70
2018-03-04T19:30:28.609Z,6.60
2018-03-04T19:32:56.910Z,6.60
2018-03-04T19:35:25.369Z,6.50
2018-03-04T19:37:53.675Z,6.50
2018-03-04T19:40:22.727Z,6.40
2018-03-04T19:42:50.773Z,6.30
2018-03-04T19:45:19.856Z,6.30
2018-03-04T20:05:07.927Z,6.10
2018-03-04T20:07:36.300Z,6.10
2018-03-04T20:10:05.348Z,6.10
2018-03-04T20:12:33.784Z,6.10
2018-03-04T20:15:02.128Z,6.10
2018-03-04T20:17:31.346Z,6.00
2018-03-04T20:19:59.680Z,6.00
2018-03-04T20:22:28.009Z,5.90
2018-03-04T20:24:56.336Z,6.00
2018-03-04T20:53:34.449Z,5.80
2018-03-04T20:56:02.925Z,5.80
2018-03-04T20:58:32.031Z,5.80
2018-03-04T21:01:00.336Z,5.70
2018-03-04T21:03:28.666Z,5.70
2018-03-04T21:05:57.062Z,5.60
2018-03-04T21:08:25.506Z,5.60
2018-03-04T21:10:53.979Z,5.60
2018-03-04T21:13:22.369Z,5.50
2018-03-04T21:41:47.051Z,5.60
2018-03-04T21:44:15.523Z,5.50
2018-03-04T21:46:43.654Z,5.50
2018-03-04T21:49:11.972Z,5.60
2018-03-04T21:51:40.459Z,5.70
2018-03-04T21:54:08.785Z,5.60
2018-03-04T21:56:37.895Z,5.60
2018-03-04T21:59:06.192Z,5.50
2018-03-04T22:01:34.505Z,5.60
2018-03-04T22:04:02.816Z,5.50
2018-03-04T22:06:31.090Z,5.50
2018-03-04T22:08:59.397Z,5.50
2018-03-04T22:11:27.718Z,5.50
2018-03-04T22:13:56.022Z,5.60
2018-03-04T22:16:24.404Z,5.60
2018-03-04T22:18:52.699Z,5.60
2018-03-04T22:21:21.006Z,5.60
2018-03-04T22:23:49.285Z,5.60
2018-03-04T22:26:17.603Z,5.50
2018-03-04T22:28:45.909Z,5.40
2018-03-04T22:31:14.207Z,5.40
2018-03-04T22:33:42.506Z,5.30
2018-03-04T22:36:10.792Z,5.30
2018-03-04T22:38:39.101Z,5.30
2018-03-04T22:41:07.418Z,5.20
2018-03-04T22:43:35.902Z,5.20
2018-03-04T22:46:04.179Z,5.20
2018-03-04T22:48:32.570Z,5.20
2018-03-04T22:51:00.953Z,5.10
2018-03-04T22:53:29.292Z,5.20
2018-03-04T22:55:57.598Z,5.10
2018-03-04T22:58:25.951Z,5.10
2018-03-04T23:00:54.371Z,5.10
2018-03-04T23:03:22.696Z,5.10
2018-03-04T23:05:51.032Z,5.00
2018-03-04T23:08:19.354Z,5.00
2018-03-04T23:10:47.702Z,5.10
2018-03-04T23:13:16.006Z,5.10
2018-03-04T23:15:44.312Z,5.10
2018-03-04T23:18:12.643Z,5.00
2018-03-04T23:20:41.688Z,5.00
2018-03-04T23:23:09.996Z,5.00
2018-03-04T23:25:38.311Z,4.90
2018-03-04T23:28:06.625Z,4.90
2018-03-04T23:30:34.927Z,5.00
2018-03-04T23:33:03.242Z,4.90
2018-03-04T23:35:32.289Z,4.90
2018-03-04T23:38:00.678Z,4.90
2018-03-04T23:40:29.031Z,4.90
2018-03-04T23:42:57.313Z,4.90
2018-03-04T23:45:25.606Z,4.90
2018-03-04T23:47:53.879Z,5.00
2018-03-04T23:50:22.367Z,5.00
2018-03-04T23:52:50.643Z,4.90
2018-03-04T23:55:18.969Z,4.90
2018-03-04T23:57:47.272Z,4.90
